Time;durP1;ratioP1;P1;durP2;ratioP2;P2;SDS_P1;SDS_P2;PMS_P1;PMS_P2;Temp;Humidity;BMP_temperature;BMP_pressure;BME280_temperature;BME280_humidity;BME280_pressure;Samples;Min_cycle;Max_cycle;Signal;HPM_P1;HPM_P2
2022/06/11 00:00:29;;;;;;;;;;;;;;;17.67;70.96;99966.02;1714480;83;20255;-81
2022/06/11 00:03:33;;;;;;;;;;;;;;;17.63;70.78;99967.00;1713819;83;20596;-81
2022/06/11 00:06:39;;;;;;;;;;;;;;;17.59;70.61;99974.61;1714129;83;20251;-81
2022/06/11 00:09:42;;;;;;;;;;;;;;;17.52;70.75;99970.55;1714388;83;20226;-81
2022/06/11 00:12:46;;;;;;;;;;;;;;;17.49;71.15;99966.01;1715286;83;20211;-81
2022/06/11 00:15:51;;;;;;;;;;;;;;;17.46;71.77;99965.95;1727963;83;20663;-81
2022/06/11 00:18:56;;;;;;;;;;;;;;;17.45;73.08;99961.47;1728150;83;20641;-81
2022/06/11 00:22:02;;;;;;;;;;;;;;;17.47;73.50;99963.48;1726451;83;20159;-81
2022/06/11 00:25:05;;;;;;;;;;;;;;;17.41;72.47;99951.97;1726640;82;20230;-81
2022/06/11 00:28:12;;;;;;;;;;;;;;;17.36;71.40;99950.41;1727820;83;20222;-81
2022/06/11 00:31:18;;;;;;;;;;;;;;;17.31;71.36;99952.50;1728280;83;20270;-81
2022/06/11 00:34:22;;;;;;;;;;;;;;;17.28;71.07;99949.34;1727484;83;20250;-80
2022/06/11 00:37:27;;;;;;;;;;;;;;;17.26;71.19;99957.84;1728035;83;20202;-81
2022/06/11 00:40:31;;;;;;;;;;;;;;;17.24;71.81;99956.40;1726499;83;20640;-81
2022/06/11 00:43:39;;;;;;;;;;;;;;;17.20;72.07;99955.16;1727700;83;20254;-81
2022/06/11 00:46:59;;;;;;;;;;;;;;;17.17;72.17;99955.61;1727007;83;20293;-81
2022/06/11 00:50:06;;;;;;;;;;;;;;;17.15;72.81;99959.15;1727850;83;20202;-81
2022/06/11 00:53:10;;;;;;;;;;;;;;;17.11;73.42;99960.13;1727706;83;20167;-81
2022/06/11 00:56:21;;;;;;;;;;;;;;;17.07;72.80;99959.73;1727722;83;20286;-80
2022/06/11 00:59:32;;;;;;;;;;;;;;;17.04;72.76;99964.35;1726136;83;20230;-81
2022/06/11 01:02:38;;;;;;;;;;;;;;;17.02;72.69;99959.57;1728048;83;20231;-80
2022/06/11 01:05:44;;;;;;;;;;;;;;;17.03;72.77;99965.94;1726409;83;20198;-81
2022/06/11 01:08:54;;;;;;;;;;;;;;;17.02;73.29;99967.86;1727856;83;20595;-81
2022/06/11 01:12:16;;;;;;;;;;;;;;;17.00;73.23;99965.88;1728045;83;20251;-80
2022/06/11 01:15:29;;;;;;;;;;;;;;;16.98;73.50;99963.86;1715181;83;20239;-80
2022/06/11 01:18:42;;;;;;;;;;;;;;;16.95;73.28;99967.09;1714518;83;20591;-80
2022/06/11 01:22:15;;;;;;;;;;;;;;;16.94;73.59;99957.13;1681925;84;20223;-80
2022/06/11 01:25:28;;;;;;;;;;;;;;;16.95;73.70;99960.73;1713281;83;20429;-80
2022/06/11 01:28:53;;;;;;;;;;;;;;;16.94;73.96;99957.13;1714542;83;20212;-80
2022/06/11 01:32:01;;;;;;;;;;;;;;;16.95;74.21;99947.75;1722171;82;20229;-81
2022/06/11 01:35:23;;;;;;;;;;;;;;;16.98;74.37;99955.56;1721236;82;20240;-81
2022/06/11 01:38:58;;;;;;;;;;;;;;;16.98;74.19;99963.02;1744730;82;20217;-80
2022/06/11 01:42:08;;;;;;;;;;;;;;;16.96;74.41;99969.31;1715954;82;20649;-80
2022/06/11 01:45:29;;;;;;;;;;;;;;;16.93;75.08;99978.05;1715896;83;20253;-81
2022/06/11 01:48:29;;;;;;;;;;;;;;;16.95;76.41;99973.16;1715837;82;20227;-81
2022/06/11 01:51:56;;;;;;;;;;;;;;;17.00;76.96;99974.16;1732570;82;20221;-80
2022/06/11 01:55:30;;;;;;;;;;;;;;;17.05;78.15;99981.23;1738745;82;20225;-81
2022/06/11 01:58:41;;;;;;;;;;;;;;;17.20;79.39;99982.80;1719450;82;20243;-82
2022/06/11 02:01:55;;;;;;;;;;;;;;;17.48;80.01;99988.67;1715109;83;20214;-82
2022/06/11 02:05:22;;;;;;;;;;;;;;;17.81;79.62;99987.48;1726254;83;20699;-81
2022/06/11 02:08:33;;;;;;;;;;;;;;;18.20;77.75;99993.02;1726621;83;20221;-82
2022/06/11 02:11:47;;;;;;;;;;;;;;;18.68;77.24;99994.03;1716860;83;20667;-81
2022/06/11 02:15:04;;;;;;;;;;;;;;;19.10;75.86;99987.93;1718416;82;21339;-82
2022/06/11 02:18:06;;;;;;;;;;;;;;;19.49;74.14;99991.92;1745276;82;20730;-81
2022/06/11 02:21:09;;;;;;;;;;;;;;;19.80;72.59;99991.23;1743627;82;20217;-82
2022/06/11 02:24:00;;;;;;;;;;;;;;;20.13;71.31;99994.15;1745316;82;20217;-82
2022/06/11 02:27:00;;;;;;;;;;;;;;;20.49;69.60;99997.67;1718071;82;20294;-82
2022/06/11 02:30:06;;;;;;;;;;;;;;;20.84;67.46;99999.40;1720794;82;20227;-82
2022/06/11 02:33:11;;;;;;;;;;;;;;;21.18;65.81;99997.50;1681213;85;20626;-82
2022/06/11 02:36:24;;;;;;;;;;;;;;;21.56;64.65;99999.50;1670934;85;20248;-82
2022/06/11 02:39:29;;;;;;;;;;;;;;;21.92;63.36;99993.01;1685439;85;20610;-82
2022/06/11 02:42:33;;;;;;;;;;;;;;;22.18;62.10;99997.00;1709991;84;20757;-82
2022/06/11 02:45:39;;;;;;;;;;;;;;;22.39;61.20;100003.64;1691374;85;20587;-82
2022/06/11 02:48:44;;;;;;;;;;;;;;;22.62;60.39;100004.72;1719047;83;20224;-82
2022/06/11 02:51:49;;;;;;;;;;;;;;;22.91;59.17;100001.16;1714498;83;20228;-82
2022/06/11 02:54:54;;;;;;;;;;;;;;;23.24;58.04;100010.33;1700848;84;20674;-82
2022/06/11 02:57:59;;;;;;;;;;;;;;;23.56;56.71;99999.12;1712984;83;20317;-82
2022/06/11 03:01:05;;;;;;;;;;;;;;;23.87;55.60;100003.53;1700144;84;20244;-82
2022/06/11 03:04:11;;;;;;;;;;;;;;;24.13;54.46;100007.27;1700329;84;20200;-82
2022/06/11 03:07:16;;;;;;;;;;;;;;;24.33;53.63;100003.17;1714113;83;20227;-82
2022/06/11 03:10:22;;;;;;;;;;;;;;;24.52;52.77;100006.33;1718121;82;20782;-82
2022/06/11 03:13:32;;;;;;;;;;;;;;;24.60;51.99;100011.36;1718670;83;20509;-81
2022/06/11 03:16:37;;;;;;;;;;;;;;;24.61;52.03;100012.22;1734584;81;20226;-82
2022/06/11 03:19:42;;;;;;;;;;;;;;;24.63;51.97;100014.17;1741231;81;20635;-82
2022/06/11 03:22:49;;;;;;;;;;;;;;;24.63;51.79;100016.97;1739737;82;20245;-82
2022/06/11 03:25:54;;;;;;;;;;;;;;;24.51;52.27;100010.22;1741597;82;20199;-82
2022/06/11 03:28:59;;;;;;;;;;;;;;;24.48;52.64;100014.98;1743876;82;20286;-81
2022/06/11 03:32:03;;;;;;;;;;;;;;;24.38;52.74;100006.57;1747296;81;20243;-81
2022/06/11 03:35:08;;;;;;;;;;;;;;;24.33;53.21;100007.92;1771047;81;20517;-81
2022/06/11 03:38:13;;;;;;;;;;;;;;;24.41;53.35;100006.00;1747220;81;20274;-81
2022/06/11 03:41:12;;;;;;;;;;;;;;;24.52;53.12;100005.48;1741920;81;20280;-81
2022/06/11 03:44:18;;;;;;;;;;;;;;;24.58;52.73;100006.61;1716358;82;20686;-81
2022/06/11 03:47:22;;;;;;;;;;;;;;;24.54;52.77;100001.84;1712559;83;20654;-81
2022/06/11 03:50:31;;;;;;;;;;;;;;;24.50;53.15;100008.55;1729044;83;20221;-81
2022/06/11 03:53:38;;;;;;;;;;;;;;;24.53;53.32;100005.20;1730330;82;20225;-81
2022/06/11 03:56:43;;;;;;;;;;;;;;;24.51;53.28;100008.81;1733470;82;20267;-81
2022/06/11 03:59:49;;;;;;;;;;;;;;;24.51;53.38;100006.58;1741253;82;20220;-81
2022/06/11 04:02:54;;;;;;;;;;;;;;;24.53;53.69;100005.20;1743639;82;20245;-81
2022/06/11 04:05:54;;;;;;;;;;;;;;;24.67;53.81;100015.30;1726012;82;20287;-81
2022/06/11 04:09:00;;;;;;;;;;;;;;;24.79;53.32;100007.47;1717705;82;20724;-81
2022/06/11 04:12:04;;;;;;;;;;;;;;;24.86;52.92;100011.42;1720406;82;20236;-81
2022/06/11 04:15:07;;;;;;;;;;;;;;;24.95;53.00;100009.75;1713752;83;20508;-81
2022/06/11 04:18:12;;;;;;;;;;;;;;;25.01;52.74;100011.42;1727634;83;20249;-81
2022/06/11 04:21:19;;;;;;;;;;;;;;;24.99;52.89;100010.31;1731644;82;20558;-81
2022/06/11 04:24:24;;;;;;;;;;;;;;;25.03;52.65;100006.41;1745133;82;20241;-81
2022/06/11 04:27:29;;;;;;;;;;;;;;;25.02;52.51;100006.09;1744169;82;20252;-81
2022/06/11 04:30:34;;;;;;;;;;;;;;;25.11;52.75;100012.02;1744843;82;20245;-80
2022/06/11 04:33:39;;;;;;;;;;;;;;;25.18;52.57;100011.19;1733443;82;20229;-83
2022/06/11 04:36:45;;;;;;;;;;;;;;;25.22;52.75;100013.72;1725171;82;20227;-81
2022/06/11 04:39:52;;;;;;;;;;;;;;;25.31;52.10;100023.76;1715182;82;20569;-81
2022/06/11 04:42:57;;;;;;;;;;;;;;;25.33;52.04;100022.38;1717632;82;20217;-82
2022/06/11 04:46:02;;;;;;;;;;;;;;;25.38;52.27;100027.13;1735230;82;20639;-82
2022/06/11 04:49:06;;;;;;;;;;;;;;;25.47;52.10;100017.05;1715465;83;20238;-80
2022/06/11 04:52:11;;;;;;;;;;;;;;;25.65;52.06;100008.05;1720306;82;20677;-85
2022/06/11 04:55:09;;;;;;;;;;;;;;;25.83;51.52;100005.25;1718336;82;20253;-81
2022/06/11 04:58:13;;;;;;;;;;;;;;;25.99;51.90;100013.86;1739337;82;20229;-81
2022/06/11 05:01:20;;;;;;;;;;;;;;;26.17;50.33;100018.00;1715291;83;20251;-81
2022/06/11 05:04:24;;;;;;;;;;;;;;;26.32;49.78;100014.86;1722680;82;20245;-80
2022/06/11 05:07:28;;;;;;;;;;;;;;;26.50;48.80;100014.23;1739096;82;21190;-80
2022/06/11 05:10:34;;;;;;;;;;;;;;;26.56;46.02;100018.67;1733764;82;20446;-81
2022/06/11 05:13:40;;;;;;;;;;;;;;;26.66;44.92;100020.02;1719193;82;20318;-81
2022/06/11 05:16:47;;;;;;;;;;;;;;;26.74;45.23;100032.03;1724711;83;20620;-81
2022/06/11 05:19:52;;;;;;;;;;;;;;;26.79;44.30;100024.72;1712113;83;20219;-81
2022/06/11 05:22:55;;;;;;;;;;;;;;;26.83;43.81;100025.25;1738960;82;20642;-81
2022/06/11 05:26:00;;;;;;;;;;;;;;;26.85;43.50;100030.56;1723153;82;20507;-81
2022/06/11 05:29:04;;;;;;;;;;;;;;;26.95;43.36;100024.88;1703699;84;20651;-81
2022/06/11 05:32:09;;;;;;;;;;;;;;;26.99;44.13;100034.38;1704190;84;20247;-81
2022/06/11 05:35:15;;;;;;;;;;;;;;;27.11;43.11;100034.90;1710290;84;20207;-81
2022/06/11 05:38:23;;;;;;;;;;;;;;;27.15;41.39;100030.95;1709306;84;20259;-80
2022/06/11 05:41:27;;;;;;;;;;;;;;;27.21;41.34;100032.00;1705426;84;20220;-81
2022/06/11 05:44:32;;;;;;;;;;;;;;;27.32;41.56;100041.74;1704770;84;20220;-81
2022/06/11 05:47:37;;;;;;;;;;;;;;;27.41;40.70;100038.58;1705455;82;20627;-81
2022/06/11 05:50:43;;;;;;;;;;;;;;;27.48;41.15;100041.89;1718903;82;20221;-80
2022/06/11 05:53:47;;;;;;;;;;;;;;;27.62;40.86;100042.02;1713181;82;20725;-80
2022/06/11 05:56:51;;;;;;;;;;;;;;;27.76;39.19;100050.91;1734816;82;20639;-80
2022/06/11 06:00:05;;;;;;;;;;;;;;;27.85;37.49;100051.65;1738222;82;20246;-81
2022/06/11 06:03:04;;;;;;;;;;;;;;;27.84;37.90;100050.81;1738570;82;20209;-81
2022/06/11 06:06:08;;;;;;;;;;;;;;;27.98;37.78;100048.97;1742836;82;20667;-80
2022/06/11 06:09:13;;;;;;;;;;;;;;;28.16;35.85;100043.72;1742326;81;20248;-80
2022/06/11 06:12:18;;;;;;;;;;;;;;;28.32;35.50;100040.14;1702898;84;20251;-80
2022/06/11 06:15:31;;;;;;;;;;;;;;;28.47;33.73;100042.23;1702933;84;20196;-81
2022/06/11 06:18:35;;;;;;;;;;;;;;;28.57;31.80;100039.85;1710727;82;20242;-80
2022/06/11 06:21:41;;;;;;;;;;;;;;;28.62;31.53;100039.78;1702241;84;20228;-80
2022/06/11 06:24:47;;;;;;;;;;;;;;;28.68;30.95;100041.94;1714097;82;20659;-80
2022/06/11 06:27:52;;;;;;;;;;;;;;;28.80;30.62;100042.91;1708578;83;20643;-80
2022/06/11 06:30:59;;;;;;;;;;;;;;;28.87;29.85;100039.97;1719030;82;20195;-80
2022/06/11 06:34:03;;;;;;;;;;;;;;;28.96;30.47;100045.78;1726565;82;20225;-81
2022/06/11 06:37:08;;;;;;;;;;;;;;;29.02;30.43;100045.95;1725551;82;20683;-80
2022/06/11 06:40:14;;;;;;;;;;;;;;;29.00;29.60;100050.50;1730127;82;20620;-81
2022/06/11 06:43:19;;;;;;;;;;;;;;;28.98;28.44;100054.75;1726799;82;20229;-80
2022/06/11 06:46:26;;;;;;;;;;;;;;;29.00;28.10;100049.66;1719251;82;20619;-80
2022/06/11 06:49:31;;;;;;;;;;;;;;;29.03;28.35;100054.70;1719944;82;20209;-80
2022/06/11 06:52:35;;;;;;;;;;;;;;;29.09;28.78;100056.86;1734344;82;20217;-80
2022/06/11 06:55:42;;;;;;;;;;;;;;;29.13;27.39;100058.75;1726062;82;20239;-80
2022/06/11 06:58:41;;;;;;;;;;;;;;;29.13;27.46;100058.75;1713442;83;20211;-81
2022/06/11 07:01:45;;;;;;;;;;;;;;;29.15;27.48;100050.83;1712993;82;20231;-80
2022/06/11 07:04:49;;;;;;;;;;;;;;;29.24;27.42;100056.03;1713624;82;20249;-80
2022/06/11 07:07:55;;;;;;;;;;;;;;;29.33;27.37;100049.70;1712258;83;20205;-80
2022/06/11 07:11:02;;;;;;;;;;;;;;;29.44;27.60;100044.15;1734405;82;20233;-80
2022/06/11 07:14:04;;;;;;;;;;;;;;;29.54;26.25;100053.83;1733205;82;20601;-80
2022/06/11 07:17:11;;;;;;;;;;;;;;;29.59;27.03;100048.13;1715812;82;20259;-81
2022/06/11 07:20:20;;;;;;;;;;;;;;;29.72;26.26;100049.31;1715453;83;20211;-80
2022/06/11 07:23:31;;;;;;;;;;;;;;;29.83;26.45;100042.36;1716301;83;20641;-80
2022/06/11 07:26:44;;;;;;;;;;;;;;;29.96;26.33;100044.91;1697880;83;20425;-80
2022/06/11 07:29:53;;;;;;;;;;;;;;;30.05;26.28;100045.86;1691192;85;20227;-80
2022/06/11 07:32:58;;;;;;;;;;;;;;;30.07;26.02;100041.34;1690114;85;20349;-80
2022/06/11 07:36:03;;;;;;;;;;;;;;;30.08;25.65;100038.77;1689651;85;20345;-80
2022/06/11 07:39:07;;;;;;;;;;;;;;;30.09;24.91;100044.09;1694815;83;20305;-80
2022/06/11 07:42:13;;;;;;;;;;;;;;;30.05;25.03;100043.87;1696927;82;20268;-80
2022/06/11 07:45:18;;;;;;;;;;;;;;;30.03;24.87;100041.12;1701248;83;20208;-80
2022/06/11 07:48:22;;;;;;;;;;;;;;;30.01;24.90;100037.76;1698575;83;20233;-80
2022/06/11 07:51:27;;;;;;;;;;;;;;;29.95;24.18;100033.37;1709837;82;20336;-80
2022/06/11 07:54:33;;;;;;;;;;;;;;;29.90;24.70;100035.72;1719105;83;20703;-80
2022/06/11 07:57:39;;;;;;;;;;;;;;;29.95;24.96;100036.20;1707409;82;20233;-80
2022/06/11 08:00:47;;;;;;;;;;;;;;;30.00;23.62;100046.80;1690036;85;20249;-79
2022/06/11 08:03:52;;;;;;;;;;;;;;;29.93;23.40;100036.52;1694199;83;20233;-79
2022/06/11 08:06:57;;;;;;;;;;;;;;;29.94;23.97;100038.76;1704515;84;20235;-80
2022/06/11 08:10:02;;;;;;;;;;;;;;;30.00;24.59;100043.98;1710572;83;20231;-80
2022/06/11 08:13:07;;;;;;;;;;;;;;;30.01;24.14;100040.58;1706092;82;20203;-80
2022/06/11 08:16:11;;;;;;;;;;;;;;;30.01;24.48;100034.36;1711354;82;20245;-80
2022/06/11 08:19:17;;;;;;;;;;;;;;;30.03;24.15;100030.67;1713154;83;20732;-80
2022/06/11 08:22:20;;;;;;;;;;;;;;;30.10;24.46;100040.11;1715183;83;20217;-80
2022/06/11 08:25:27;;;;;;;;;;;;;;;30.15;24.02;100038.62;1714761;82;20255;-80
2022/06/11 08:28:30;;;;;;;;;;;;;;;30.13;24.47;100033.89;1693547;83;20291;-80
2022/06/11 08:31:35;;;;;;;;;;;;;;;30.15;23.79;100030.74;1701905;83;20649;-80
2022/06/11 08:34:47;;;;;;;;;;;;;;;30.14;23.80;100035.55;1705793;83;20238;-80
2022/06/11 08:37:52;;;;;;;;;;;;;;;30.17;23.87;100028.47;1707560;83;20609;-80
2022/06/11 08:40:58;;;;;;;;;;;;;;;30.23;23.62;100022.39;1699198;82;20234;-80
2022/06/11 08:44:15;;;;;;;;;;;;;;;30.25;24.28;100027.16;1709445;84;20259;-80
2022/06/11 08:47:21;;;;;;;;;;;;;;;30.32;23.92;100023.07;1705804;83;20288;-80
2022/06/11 08:50:37;;;;;;;;;;;;;;;30.28;23.82;100020.04;1711016;84;20255;-80
2022/06/11 08:53:36;;;;;;;;;;;;;;;30.21;23.77;100020.47;1705729;83;20280;-80
2022/06/11 08:56:34;;;;;;;;;;;;;;;30.19;23.79;100019.94;1708384;83;20199;-80
2022/06/11 08:59:56;;;;;;;;;;;;;;;30.17;24.03;100010.97;1716989;83;20191;-80
2022/06/11 09:03:20;;;;;;;;;;;;;;;30.11;24.22;100012.17;1708035;84;20211;-80
2022/06/11 09:06:31;;;;;;;;;;;;;;;30.10;23.59;100016.14;1697161;84;20228;-80
2022/06/11 09:10:05;;;;;;;;;;;;;;;30.06;23.52;100005.22;1686101;85;20258;-81
2022/06/11 09:13:19;;;;;;;;;;;;;;;30.14;23.67;100010.75;1712943;83;20215;-80
2022/06/11 09:16:47;;;;;;;;;;;;;;;30.13;23.98;100007.09;1713401;83;20231;-80
2022/06/11 09:20:09;;;;;;;;;;;;;;;30.19;23.59;99994.55;1714620;83;20278;-80
2022/06/11 09:23:21;;;;;;;;;;;;;;;30.24;23.76;99990.20;1760763;81;20207;-80
2022/06/11 09:26:37;;;;;;;;;;;;;;;30.37;24.42;99989.11;1716446;83;20232;-80
2022/06/11 09:29:47;;;;;;;;;;;;;;;30.51;23.43;99991.33;1697863;84;20642;-80
2022/06/11 09:33:08;;;;;;;;;;;;;;;30.47;22.56;99997.34;1698038;84;20196;-80
2022/06/11 09:36:18;;;;;;;;;;;;;;;30.39;22.73;99998.08;1696181;84;20224;-79
2022/06/11 09:39:26;;;;;;;;;;;;;;;30.34;22.90;100005.24;1695444;84;20228;-79
2022/06/11 09:43:02;;;;;;;;;;;;;;;30.35;22.82;100001.27;1720832;83;20214;-79
2022/06/11 09:46:18;;;;;;;;;;;;;;;30.35;22.82;99998.44;1735541;82;20189;-79
2022/06/11 09:49:31;;;;;;;;;;;;;;;30.29;22.84;99987.27;1729169;83;20710;-79
2022/06/11 09:53:04;;;;;;;;;;;;;;;30.24;23.65;99990.20;1725222;83;20194;-79
2022/06/11 09:56:17;;;;;;;;;;;;;;;30.25;23.11;99992.45;1755655;81;20367;-79
2022/06/11 09:59:36;;;;;;;;;;;;;;;30.30;23.14;99988.11;1728826;83;20210;-79
2022/06/11 10:02:55;;;;;;;;;;;;;;;30.31;23.19;99984.73;1728884;83;20230;-79
2022/06/11 10:06:30;;;;;;;;;;;;;;;30.36;22.75;99988.27;1728632;83;20210;-79
2022/06/11 10:10:00;;;;;;;;;;;;;;;30.35;22.76;99990.84;1729106;83;20351;-79
2022/06/11 10:13:12;;;;;;;;;;;;;;;30.36;23.32;99979.81;1729299;83;20309;-79
2022/06/11 10:16:28;;;;;;;;;;;;;;;30.45;23.45;99980.73;1728692;83;20233;-79
2022/06/11 10:19:35;;;;;;;;;;;;;;;30.54;23.37;99987.30;1727432;83;20770;-79
2022/06/11 10:22:32;;;;;;;;;;;;;;;30.58;23.17;99976.19;1729408;83;20229;-79
2022/06/11 10:25:43;;;;;;;;;;;;;;;30.60;22.88;99977.30;1735058;82;20201;-79
2022/06/11 10:28:51;;;;;;;;;;;;;;;30.62;23.07;99978.64;1733040;82;20297;-79
2022/06/11 10:32:01;;;;;;;;;;;;;;;30.56;22.63;99978.51;1733314;82;20205;-79
2022/06/11 10:35:11;;;;;;;;;;;;;;;30.46;23.00;99976.75;1734857;82;20717;-79
2022/06/11 10:38:24;;;;;;;;;;;;;;;30.49;23.48;99973.31;1724755;83;20225;-79
2022/06/11 10:41:34;;;;;;;;;;;;;;;30.59;22.97;99974.23;1733324;82;20249;-79
2022/06/11 10:44:45;;;;;;;;;;;;;;;30.62;23.03;99968.76;1733868;82;20402;-79
2022/06/11 10:47:52;;;;;;;;;;;;;;;30.65;23.41;99968.13;1716036;82;20639;-79
2022/06/11 10:50:56;;;;;;;;;;;;;;;30.75;22.78;99962.27;1700268;83;20756;-79
2022/06/11 10:54:19;;;;;;;;;;;;;;;30.78;22.51;99960.23;1693375;85;20690;-79
2022/06/11 10:57:33;;;;;;;;;;;;;;;30.77;22.62;99962.80;1692835;84;20229;-79
2022/06/11 11:00:42;;;;;;;;;;;;;;;30.73;22.65;99962.34;1693216;85;20205;-79
2022/06/11 11:03:52;;;;;;;;;;;;;;;30.68;23.27;99966.09;1693466;85;20202;-80
2022/06/11 11:07:16;;;;;;;;;;;;;;;30.67;22.77;99955.94;1692484;85;20647;-80
2022/06/11 11:10:39;;;;;;;;;;;;;;;30.69;22.70;99949.99;1692996;85;20229;-80
2022/06/11 11:13:49;;;;;;;;;;;;;;;30.71;23.11;99949.95;1706451;84;20224;-79
2022/06/11 11:16:55;;;;;;;;;;;;;;;30.76;23.09;99951.23;1704034;84;20227;-80
2022/06/11 11:23:30;;;;;;;;;;;;;;;30.94;23.07;99937.26;1699271;83;20262;-80
2022/06/11 11:26:40;;;;;;;;;;;;;;;31.01;22.96;99937.08;1724963;83;20215;-80
2022/06/11 11:29:47;;;;;;;;;;;;;;;31.01;23.45;99930.02;1726313;83;20667;-80
2022/06/11 11:32:53;;;;;;;;;;;;;;;30.99;23.54;99928.07;1725274;83;20265;-80
2022/06/11 11:36:06;;;;;;;;;;;;;;;30.97;22.98;99921.92;1716527;83;20192;-80
2022/06/11 11:39:24;;;;;;;;;;;;;;;30.94;23.19;99917.49;1715035;83;20207;-80
2022/06/11 11:42:34;;;;;;;;;;;;;;;30.93;22.89;99921.48;1712894;83;20204;-80
2022/06/11 11:45:50;;;;;;;;;;;;;;;30.93;22.97;99918.66;1713767;83;20207;-80
2022/06/11 11:49:01;;;;;;;;;;;;;;;30.96;22.83;99915.17;1714110;83;20681;-79
2022/06/11 11:52:18;;;;;;;;;;;;;;;30.99;22.98;99921.59;1713801;83;20207;-79
2022/06/11 11:55:39;;;;;;;;;;;;;;;30.98;23.14;99915.11;1698603;83;20248;-80
2022/06/11 11:58:46;;;;;;;;;;;;;;;30.97;23.02;99913.45;1714685;83;20207;-80
2022/06/11 12:01:53;;;;;;;;;;;;;;;30.98;22.86;99915.70;1714979;83;20207;-80
2022/06/11 12:05:02;;;;;;;;;;;;;;;31.01;22.52;99908.00;1714902;83;20234;-80
2022/06/11 12:08:07;;;;;;;;;;;;;;;31.01;22.84;99906.02;1715230;83;20589;-79
2022/06/11 12:11:12;;;;;;;;;;;;;;;31.07;22.90;99908.12;1715207;83;20506;-80
2022/06/11 12:14:22;;;;;;;;;;;;;;;31.06;22.65;99907.87;1714457;83;20259;-80
2022/06/11 12:17:50;;;;;;;;;;;;;;;31.00;22.33;99894.44;1712204;84;20267;-80
2022/06/11 12:20:59;;;;;;;;;;;;;;;30.96;22.47;99893.98;1700940;83;20196;-80
2022/06/11 12:24:13;;;;;;;;;;;;;;;30.96;22.59;99893.98;1713864;83;20176;-80
2022/06/11 12:27:34;;;;;;;;;;;;;;;30.98;22.87;99891.11;1713717;83;20636;-80
2022/06/11 12:30:38;;;;;;;;;;;;;;;30.99;22.79;99887.13;1713709;83;20207;-80
2022/06/11 12:33:50;;;;;;;;;;;;;;;31.01;22.59;99888.23;1712458;83;20240;-80
2022/06/11 12:37:03;;;;;;;;;;;;;;;31.03;23.15;99884.50;1713944;83;20223;-80
2022/06/11 12:40:26;;;;;;;;;;;;;;;31.10;22.68;99871.31;1712395;83;20613;-80
2022/06/11 12:43:45;;;;;;;;;;;;;;;31.10;22.72;99869.35;1712479;83;20348;-80
2022/06/11 12:47:02;;;;;;;;;;;;;;;31.13;22.32;99867.86;1713293;83;20624;-79
2022/06/11 12:50:18;;;;;;;;;;;;;;;31.12;22.61;99862.79;1726274;82;20230;-80
2022/06/11 12:53:44;;;;;;;;;;;;;;;31.18;23.62;99853.59;1739184;82;20932;-80
2022/06/11 12:57:03;;;;;;;;;;;;;;;31.23;22.66;99859.92;1738241;82;20236;-80
2022/06/11 13:00:38;;;;;;;;;;;;;;;31.22;22.67;99855.44;1736689;82;21197;-80
2022/06/11 13:03:51;;;;;;;;;;;;;;;31.23;22.64;99859.92;1719551;82;20201;-80
2022/06/11 13:07:07;;;;;;;;;;;;;;;31.24;22.35;99850.31;1738542;82;20244;-80
2022/06/11 13:10:32;;;;;;;;;;;;;;;31.23;22.29;99850.63;1738941;82;20217;-79
2022/06/11 13:13:57;;;;;;;;;;;;;;;31.20;22.36;99849.30;1737954;82;20643;-80
2022/06/11 13:17:27;;;;;;;;;;;;;;;31.15;22.29;99842.93;1739066;82;20738;-79
2022/06/11 13:20:35;;;;;;;;;;;;;;;31.09;22.21;99836.59;1723133;82;20623;-79
2022/06/11 13:23:47;;;;;;;;;;;;;;;31.04;22.28;99837.56;1712989;83;20218;-79
2022/06/11 13:27:07;;;;;;;;;;;;;;;30.97;22.64;99839.20;1713345;83;20230;-80
2022/06/11 13:30:32;;;;;;;;;;;;;;;30.92;22.61;99836.52;1714377;83;20245;-79
2022/06/11 13:33:58;;;;;;;;;;;;;;;30.85;22.34;99834.14;1713053;83;20225;-80
2022/06/11 13:37:24;;;;;;;;;;;;;;;30.80;22.45;99830.88;1714223;83;20224;-79
2022/06/11 13:40:54;;;;;;;;;;;;;;;30.78;22.21;99828.97;1713864;83;20239;-79
2022/06/11 13:44:18;;;;;;;;;;;;;;;30.76;22.36;99820.55;1713110;83;20305;-80
2022/06/11 13:47:43;;;;;;;;;;;;;;;30.71;22.64;99823.50;1714194;83;20278;-80
2022/06/11 13:50:53;;;;;;;;;;;;;;;30.69;22.44;99821.56;1714200;83;21109;-79
2022/06/11 13:57:25;;;;;;;;;;;;;;;30.69;22.48;99812.52;1714266;83;20223;-79
2022/06/11 14:00:49;;;;;;;;;;;;;;;30.68;22.75;99803.80;1712732;83;20223;-80
2022/06/11 14:04:33;;;;;;;;;;;;;;;30.69;22.88;99807.45;1712967;83;20255;-79
2022/06/11 14:07:38;;;;;;;;;;;;;;;30.65;22.58;99801.61;1713916;83;20227;-79
2022/06/11 14:10:50;;;;;;;;;;;;;;;30.64;22.55;99793.48;1739777;82;20613;-79
2022/06/11 14:14:09;;;;;;;;;;;;;;;30.63;22.36;99793.20;1741344;82;20225;-80
2022/06/11 14:17:51;;;;;;;;;;;;;;;30.60;22.60;99781.17;1741341;82;20185;-79
2022/06/11 14:21:04;;;;;;;;;;;;;;;30.60;22.90;99789.63;1698724;84;20204;-79
2022/06/11 14:24:09;;;;;;;;;;;;;;;30.58;22.91;99788.52;1698115;84;20331;-80
2022/06/11 14:27:40;;;;;;;;;;;;;;;30.56;23.38;99792.26;1704452;84;20259;-79
2022/06/11 14:30:45;;;;;;;;;;;;;;;30.54;22.59;99784.12;1706630;84;20263;-80
2022/06/11 14:34:18;;;;;;;;;;;;;;;30.49;22.60;99774.38;1705932;84;20231;-79
2022/06/11 14:37:30;;;;;;;;;;;;;;;30.47;22.55;99784.31;1706880;84;20689;-79
2022/06/11 14:40:41;;;;;;;;;;;;;;;30.42;22.91;99780.21;1705394;84;20625;-79
2022/06/11 14:44:04;;;;;;;;;;;;;;;30.42;22.78;99783.03;1712619;83;20275;-80
2022/06/11 14:47:05;;;;;;;;;;;;;;;30.39;22.79;99770.39;1735996;82;20404;-81
2022/06/11 14:50:13;;;;;;;;;;;;;;;30.36;22.51;99774.45;1722096;82;20241;-80
2022/06/11 14:53:24;;;;;;;;;;;;;;;30.31;22.68;99773.17;1706249;84;20663;-80
2022/06/11 14:56:35;;;;;;;;;;;;;;;30.26;22.65;99774.13;1705260;84;20229;-81
2022/06/11 15:00:16;;;;;;;;;;;;;;;30.21;22.72;99772.27;1706900;84;20501;-80
2022/06/11 15:03:27;;;;;;;;;;;;;;;30.19;23.15;99771.74;1706644;84;20214;-81
2022/06/11 15:06:48;;;;;;;;;;;;;;;30.17;23.25;99773.23;1705281;84;20218;-81
2022/06/11 15:10:17;;;;;;;;;;;;;;;30.15;23.21;99770.70;1706507;84;20234;-81
2022/06/11 15:13:59;;;;;;;;;;;;;;;30.12;23.18;99774.73;1706279;84;20287;-81
2022/06/11 15:17:11;;;;;;;;;;;;;;;30.10;23.26;99775.03;1705214;84;20218;-80
2022/06/11 15:20:25;;;;;;;;;;;;;;;30.07;23.25;99778.52;1698757;83;20207;-81
2022/06/11 15:23:40;;;;;;;;;;;;;;;30.04;23.50;99776.32;1706264;84;20219;-81
2022/06/11 15:27:04;;;;;;;;;;;;;;;30.02;23.77;99768.77;1705151;84;20220;-80
2022/06/11 15:30:34;;;;;;;;;;;;;;;30.00;23.42;99772.47;1705196;84;20345;-80
2022/06/11 15:33:38;;;;;;;;;;;;;;;29.96;23.53;99778.48;1706182;84;20259;-80
2022/06/11 15:36:50;;;;;;;;;;;;;;;29.92;23.73;99774.63;1705540;84;20535;-80
2022/06/11 15:40:05;;;;;;;;;;;;;;;29.89;23.62;99778.10;1675052;84;20228;-80
2022/06/11 15:43:13;;;;;;;;;;;;;;;29.84;23.99;99778.22;1707613;84;20183;-80
2022/06/11 15:46:39;;;;;;;;;;;;;;;29.79;23.63;99778.59;1707123;84;20224;-79
2022/06/11 15:49:46;;;;;;;;;;;;;;;29.75;23.44;99776.15;1706694;84;20669;-80
2022/06/11 15:53:00;;;;;;;;;;;;;;;29.70;23.92;99776.27;1706798;84;20272;-80
2022/06/11 15:56:05;;;;;;;;;;;;;;;29.65;24.27;99774.97;1707678;84;20188;-80
2022/06/11 15:59:18;;;;;;;;;;;;;;;29.59;24.30;99771.98;1674086;84;20720;-80
2022/06/11 16:02:25;;;;;;;;;;;;;;;29.52;24.58;99775.22;1706855;84;20228;-80
2022/06/11 16:05:32;;;;;;;;;;;;;;;29.46;24.80;99774.25;1705595;84;20641;-79
2022/06/11 16:09:05;;;;;;;;;;;;;;;29.39;24.93;99770.42;1707191;84;20244;-80
2022/06/11 16:12:29;;;;;;;;;;;;;;;29.33;25.16;99774.52;1705458;84;20554;-79
2022/06/11 16:15:37;;;;;;;;;;;;;;;29.24;25.39;99773.00;1706710;84;20227;-79
2022/06/11 16:18:47;;;;;;;;;;;;;;;29.15;25.71;99766.42;1707020;84;20642;-80
2022/06/11 16:22:14;;;;;;;;;;;;;;;29.07;25.88;99762.92;1706623;84;20199;-79
2022/06/11 16:25:23;;;;;;;;;;;;;;;28.99;26.06;99763.09;1705987;84;20483;-80
2022/06/11 16:28:35;;;;;;;;;;;;;;;28.90;26.36;99757.06;1704768;84;20248;-79
2022/06/11 16:31:40;;;;;;;;;;;;;;;28.81;26.80;99756.11;1706915;84;20243;-79
2022/06/11 16:34:51;;;;;;;;;;;;;;;28.70;27.34;99747.88;1715442;83;20371;-79